Terminal Aerodrome Forecast
Issued by NWS Knoxville/Tri Cities, TN

Home | Current Version | Previous Version | Text Only | Print | Product List | Glossary On
Versions: 1 2 3 4 5 6 7 8 9 10 11 12 13 14 15 16 17 18 19 20 21 22 23 24 25 26 27 28 29 30 31 32
000
FTUS44 KMRX 041726
TAFTYS
TAF
KTYS 041726Z 0418/0518 23017G30KT P6SM BKN035
     FM042200 25012G22KT 4SM -SHRA BR OVC035
     FM050200 35010KT 3SM -RA BR OVC020
     FM050600 01011KT 6SM -RA BR BKN007
     FM051200 36015KT 2SM -RASN OVC006=

USA.gov is the U.S. government's official web portal to all federal, state and local government web resources and services.